Time;durP1;ratioP1;P1;durP2;ratioP2;P2;SDS_P1;SDS_P2;PMS_P1;PMS_P2;Temp;Humidity;BMP_temperature;BMP_pressure;BME280_temperature;BME280_humidity;BME280_pressure;Samples;Min_cycle;Max_cycle;Signal;HPM_P1;HPM_P2
2023/08/26 00:03:53;;;;;;;15.73;9.45;;;;;;;;;;10369604;28;20037;-89
2023/08/26 00:08:54;;;;;;;15.45;10.50;;;;;;;;;;10365531;28;20812;-90
2023/08/26 00:13:55;;;;;;;15.68;9.40;;;;;;;;;;10377264;28;20386;-90
2023/08/26 00:18:59;;;;;;;13.07;9.02;;;;;;;;;;10355874;28;20040;-90
2023/08/26 00:24:00;;;;;;;15.30;9.90;;;;;;;;;;10361543;28;20061;-90
2023/08/26 00:29:01;;;;;;;13.52;8.90;;;;;;;;;;10380361;28;20496;-90
2023/08/26 00:34:03;;;;;;;15.35;10.05;;;;;;;;;;10346729;28;20050;-87
2023/08/26 00:39:04;;;;;;;14.07;9.50;;;;;;;;;;10377367;28;20040;-89
2023/08/26 00:44:05;;;;;;;18.48;10.43;;;;;;;;;;10359183;28;20040;-89
2023/08/26 00:49:07;;;;;;;14.57;10.05;;;;;;;;;;10373614;28;20021;-89
2023/08/26 00:54:09;;;;;;;13.50;8.70;;;;;;;;;;10377857;28;20041;-87
2023/08/26 00:59:10;;;;;;;17.08;9.75;;;;;;;;;;10396110;28;20037;-90
2023/08/26 01:04:11;;;;;;;15.20;9.77;;;;;;;;;;10375480;28;20261;-90
2023/08/26 01:09:12;;;;;;;14.65;10.25;;;;;;;;;;10377942;28;20061;-91
2023/08/26 01:14:23;;;;;;;14.20;10.07;;;;;;;;;;10365979;28;20028;-90
2023/08/26 01:19:40;;;;;;;14.45;9.63;;;;;;;;;;10353087;28;20030;-90
2023/08/26 01:24:41;;;;;;;16.05;10.65;;;;;;;;;;10372179;28;20400;-90
2023/08/26 01:29:42;;;;;;;32.15;12.77;;;;;;;;;;10370911;28;20089;-90
2023/08/26 01:34:47;;;;;;;21.35;14.00;;;;;;;;;;10365651;28;20033;-90
2023/08/26 01:39:49;;;;;;;22.80;14.50;;;;;;;;;;10377868;28;20037;-90
2023/08/26 01:44:51;;;;;;;21.40;12.95;;;;;;;;;;10371613;28;20698;-90
2023/08/26 01:49:52;;;;;;;19.98;13.10;;;;;;;;;;10377716;28;20056;-89
2023/08/26 01:54:53;;;;;;;20.15;12.00;;;;;;;;;;10351621;28;20036;-90
2023/08/26 01:59:54;;;;;;;19.55;13.52;;;;;;;;;;10373242;28;20026;-91
2023/08/26 02:04:55;;;;;;;21.27;13.93;;;;;;;;;;10367348;28;20056;-90
2023/08/26 02:09:56;;;;;;;26.85;15.93;;;;;;;;;;10359532;28;20476;-91
2023/08/26 02:14:57;;;;;;;23.75;15.57;;;;;;;;;;10375087;28;20025;-90
2023/08/26 02:19:58;;;;;;;18.40;14.10;;;;;;;;;;10376264;28;20033;-92
2023/08/26 02:24:59;;;;;;;25.77;17.23;;;;;;;;;;10373143;28;20033;-89
2023/08/26 02:30:00;;;;;;;20.48;14.20;;;;;;;;;;10377505;28;20029;-89
2023/08/26 02:35:01;;;;;;;25.90;16.55;;;;;;;;;;10365292;28;20510;-90
2023/08/26 02:40:03;;;;;;;26.20;15.73;;;;;;;;;;10382273;28;20077;-90
2023/08/26 02:45:04;;;;;;;25.38;15.20;;;;;;;;;;10372813;28;20037;-90
2023/08/26 02:50:06;;;;;;;22.42;14.82;;;;;;;;;;10370886;28;20089;-89
2023/08/26 02:55:08;;;;;;;22.05;13.88;;;;;;;;;;10388036;23;20142;-87
2023/08/26 03:00:10;;;;;;;21.13;14.20;;;;;;;;;;10360080;28;20061;-88
2023/08/26 03:05:11;;;;;;;23.73;14.63;;;;;;;;;;10371998;28;20217;-88
2023/08/26 03:10:12;;;;;;;22.77;14.07;;;;;;;;;;10330693;28;20430;-88
2023/08/26 03:15:13;;;;;;;23.80;15.32;;;;;;;;;;10343077;28;20022;-88
2023/08/26 03:20:14;;;;;;;21.77;14.65;;;;;;;;;;10331513;28;20473;-89
2023/08/26 03:25:15;;;;;;;21.88;14.30;;;;;;;;;;10345380;28;20034;-89
2023/08/26 03:30:16;;;;;;;22.70;14.93;;;;;;;;;;10331326;28;20038;-88
2023/08/26 03:35:17;;;;;;;27.92;15.43;;;;;;;;;;10318941;28;20065;-89
2023/08/26 03:40:22;;;;;;;26.88;16.83;;;;;;;;;;10310994;28;20027;-89
2023/08/26 03:45:25;;;;;;;21.08;14.23;;;;;;;;;;10332065;28;20113;-89
2023/08/26 03:50:27;;;;;;;26.70;17.52;;;;;;;;;;10311187;28;20034;-88
2023/08/26 03:55:28;;;;;;;25.10;17.40;;;;;;;;;;10331350;28;20057;-88
2023/08/26 04:00:29;;;;;;;31.80;19.88;;;;;;;;;;10344858;28;20782;-92
2023/08/26 04:05:30;;;;;;;34.50;19.92;;;;;;;;;;10325584;28;20033;-85
2023/08/26 04:10:31;;;;;;;31.23;19.35;;;;;;;;;;10338101;28;20042;-89
2023/08/26 04:15:33;;;;;;;30.80;19.40;;;;;;;;;;10339680;28;20120;-89
2023/08/26 04:20:34;;;;;;;26.75;17.35;;;;;;;;;;10339275;28;20041;-89
2023/08/26 04:25:35;;;;;;;25.02;15.82;;;;;;;;;;10325970;28;20500;-88
2023/08/26 04:30:36;;;;;;;37.25;19.92;;;;;;;;;;10346205;28;20046;-87
2023/08/26 04:35:37;;;;;;;42.72;22.58;;;;;;;;;;10331848;28;20063;-87
2023/08/26 04:40:38;;;;;;;27.42;16.40;;;;;;;;;;10337029;28;20496;-87
2023/08/26 04:45:40;;;;;;;22.83;16.02;;;;;;;;;;10329030;28;20040;-89
2023/08/26 04:50:41;;;;;;;25.35;16.02;;;;;;;;;;10332088;28;20177;-90
2023/08/26 04:55:42;;;;;;;27.63;16.30;;;;;;;;;;10329908;28;20203;-92
2023/08/26 05:00:43;;;;;;;28.70;17.52;;;;;;;;;;10348433;28;20029;-91
2023/08/26 05:05:44;;;;;;;31.50;19.83;;;;;;;;;;10332434;28;20518;-90
2023/08/26 05:10:46;;;;;;;27.50;17.85;;;;;;;;;;10338941;28;20519;-90
2023/08/26 05:15:47;;;;;;;26.85;18.52;;;;;;;;;;10354855;28;20469;-91
2023/08/26 05:20:48;;;;;;;33.78;22.23;;;;;;;;;;10338775;28;20073;-91
2023/08/26 05:25:49;;;;;;;35.45;22.27;;;;;;;;;;10338471;28;20034;-89
2023/08/26 05:30:50;;;;;;;36.45;22.90;;;;;;;;;;10326707;28;20040;-92
2023/08/26 05:35:51;;;;;;;36.10;23.73;;;;;;;;;;10336428;28;20121;-93
2023/08/26 05:40:52;;;;;;;34.00;23.67;;;;;;;;;;10336636;28;20500;-92
2023/08/26 05:45:55;;;;;;;33.78;23.90;;;;;;;;;;10328341;28;20053;-91
2023/08/26 05:51:00;;;;;;;30.60;21.63;;;;;;;;;;10322426;28;20057;-93
2023/08/26 05:56:01;;;;;;;35.13;24.05;;;;;;;;;;10335367;28;20138;-87
2023/08/26 06:01:03;;;;;;;33.65;22.00;;;;;;;;;;10339090;28;20026;-90
2023/08/26 06:06:05;;;;;;;27.85;20.88;;;;;;;;;;10328553;28;20034;-89
2023/08/26 06:11:06;;;;;;;25.92;18.38;;;;;;;;;;10329057;28;20263;-90
2023/08/26 06:16:07;;;;;;;25.30;17.73;;;;;;;;;;10328712;28;20041;-90
2023/08/26 06:21:08;;;;;;;27.17;19.40;;;;;;;;;;10333740;28;20042;-89
2023/08/26 06:26:09;;;;;;;26.42;17.60;;;;;;;;;;10334711;28;20062;-89
2023/08/26 06:31:12;;;;;;;25.08;16.92;;;;;;;;;;10340899;28;20038;-89
2023/08/26 06:36:13;;;;;;;21.95;16.35;;;;;;;;;;10343731;28;20115;-89
2023/08/26 06:41:14;;;;;;;22.23;15.30;;;;;;;;;;10340416;28;20034;-93
2023/08/26 06:46:15;;;;;;;21.58;14.80;;;;;;;;;;10341615;28;20038;-89
2023/08/26 06:51:16;;;;;;;23.35;14.82;;;;;;;;;;10343346;28;20037;-88
2023/08/26 06:56:17;;;;;;;21.02;14.90;;;;;;;;;;10342428;28;20061;-88
2023/08/26 07:01:18;;;;;;;16.38;12.88;;;;;;;;;;10335668;28;20033;-88
2023/08/26 07:06:19;;;;;;;16.88;11.38;;;;;;;;;;10347100;28;20030;-89
2023/08/26 07:11:20;;;;;;;17.05;10.68;;;;;;;;;;10333619;28;20045;-90
2023/08/26 07:16:21;;;;;;;11.55;9.43;;;;;;;;;;10336581;28;20101;-90
2023/08/26 07:21:23;;;;;;;11.05;8.63;;;;;;;;;;10324047;28;20026;-90
2023/08/26 07:26:24;;;;;;;11.18;8.10;;;;;;;;;;10334463;28;20030;-89
2023/08/26 07:31:25;;;;;;;16.52;8.82;;;;;;;;;;10347677;28;20039;-92
2023/08/26 07:36:26;;;;;;;14.52;9.18;;;;;;;;;;10313573;28;20036;-90
2023/08/26 07:41:27;;;;;;;12.52;7.55;;;;;;;;;;10326363;28;20032;-90
2023/08/26 07:46:28;;;;;;;11.65;8.38;;;;;;;;;;10341069;28;20026;-92
2023/08/26 07:51:29;;;;;;;9.35;7.30;;;;;;;;;;10335322;28;20046;-92
2023/08/26 07:56:36;;;;;;;10.10;7.60;;;;;;;;;;10303322;28;20438;-92
2023/08/26 08:01:38;;;;;;;10.95;8.20;;;;;;;;;;10297402;28;20031;-90
2023/08/26 08:06:39;;;;;;;10.40;6.82;;;;;;;;;;10302181;28;20485;-91
2023/08/26 08:11:40;;;;;;;8.27;5.32;;;;;;;;;;10332024;28;20121;-91
2023/08/26 08:16:41;;;;;;;6.32;5.18;;;;;;;;;;10296133;28;20103;-92
2023/08/26 08:21:43;;;;;;;8.10;4.97;;;;;;;;;;10292503;28;20041;-90
2023/08/26 08:26:44;;;;;;;7.43;4.85;;;;;;;;;;10307860;28;20034;-90
2023/08/26 08:31:45;;;;;;;6.72;5.28;;;;;;;;;;10293496;28;20042;-90
2023/08/26 08:36:46;;;;;;;8.52;4.97;;;;;;;;;;10311446;28;20026;-90
2023/08/26 08:41:49;;;;;;;10.30;4.85;;;;;;;;;;10306722;28;20031;-89
2023/08/26 08:46:50;;;;;;;5.40;4.20;;;;;;;;;;10305983;28;20068;-88
2023/08/26 08:51:51;;;;;;;4.93;3.25;;;;;;;;;;10295491;28;20038;-88
2023/08/26 08:56:52;;;;;;;6.47;3.80;;;;;;;;;;10308553;28;20119;-87
2023/08/26 09:01:55;;;;;;;4.85;3.55;;;;;;;;;;10295255;28;20033;-88
2023/08/26 09:06:56;;;;;;;4.47;3.60;;;;;;;;;;10296452;28;20045;-87
2023/08/26 09:11:58;;;;;;;7.28;3.92;;;;;;;;;;10297509;28;20038;-87
2023/08/26 09:17:14;;;;;;;5.18;2.83;;;;;;;;;;10291525;28;20041;-87
2023/08/26 09:22:18;;;;;;;5.20;3.13;;;;;;;;;;10304957;28;20037;-88
2023/08/26 09:27:19;;;;;;;4.90;3.25;;;;;;;;;;10288483;28;20037;-90
2023/08/26 09:32:45;;;;;;;4.55;3.47;;;;;;;;;;10290815;28;20038;-91
2023/08/26 09:37:47;;;;;;;4.90;3.30;;;;;;;;;;10297525;28;20482;-86
2023/08/26 09:42:48;;;;;;;6.35;3.17;;;;;;;;;;10311623;28;20489;-88
2023/08/26 09:47:50;;;;;;;4.53;3.28;;;;;;;;;;10299949;28;20073;-88
2023/08/26 09:52:53;;;;;;;3.65;3.10;;;;;;;;;;10295199;28;20073;-88
2023/08/26 09:57:54;;;;;;;4.15;3.38;;;;;;;;;;10314862;28;20030;-85
2023/08/26 10:02:58;;;;;;;3.70;3.13;;;;;;;;;;10313406;28;20041;-89
2023/08/26 10:08:04;;;;;;;10.43;3.20;;;;;;;;;;10312791;28;20692;-88
2023/08/26 10:13:06;;;;;;;3.97;3.38;;;;;;;;;;10314658;28;20046;-88
2023/08/26 10:18:14;;;;;;;4.65;3.22;;;;;;;;;;10336899;28;20042;-91
2023/08/26 10:23:16;;;;;;;6.00;3.28;;;;;;;;;;10321623;28;20104;-90
2023/08/26 10:28:19;;;;;;;3.83;3.17;;;;;;;;;;10319560;28;20072;-90
2023/08/26 10:33:20;;;;;;;4.82;2.97;;;;;;;;;;10309877;28;20035;-90
2023/08/26 10:38:23;;;;;;;7.13;3.58;;;;;;;;;;10314084;28;20054;-92
2023/08/26 10:43:32;;;;;;;5.18;3.50;;;;;;;;;;10330214;28;20077;-92
2023/08/26 10:48:53;;;;;;;5.22;3.70;;;;;;;;;;10334022;28;20030;-90
2023/08/26 10:54:03;;;;;;;4.88;3.28;;;;;;;;;;10326076;28;20065;-91
2023/08/26 10:59:06;;;;;;;4.38;3.63;;;;;;;;;;10330919;28;20030;-91
2023/08/26 11:04:29;;;;;;;7.95;4.00;;;;;;;;;;10335908;28;20049;-92
2023/08/26 11:09:30;;;;;;;5.10;3.50;;;;;;;;;;10327439;28;20058;-91
2023/08/26 11:14:32;;;;;;;9.10;4.03;;;;;;;;;;10354755;23;20122;-89
2023/08/26 11:19:36;;;;;;;8.40;4.20;;;;;;;;;;10339098;28;20046;-90
2023/08/26 11:59:20;;;;;;;21.98;12.68;;;;;;;;;;10396174;28;20041;-94
2023/08/26 12:04:22;;;;;;;;;;;;;;;;;;10375646;28;20072;-90
2023/08/26 12:09:34;;;;;;;25.02;15.25;;;;;;;;;;10391538;28;19909;-92
2023/08/26 12:14:35;;;;;;;70.88;38.70;;;;;;;;;;10394215;28;20049;-90
2023/08/26 12:19:53;;;;;;;31.77;14.73;;;;;;;;;;10395773;28;20025;-91
2023/08/26 12:24:57;;;;;;;16.73;10.02;;;;;;;;;;10416902;28;20028;-91
2023/08/26 12:29:58;;;;;;;20.30;12.68;;;;;;;;;;10368609;28;20097;-90
2023/08/26 12:34:59;;;;;;;14.95;9.65;;;;;;;;;;10387798;28;20129;-94
2023/08/26 12:40:08;;;;;;;11.77;7.57;;;;;;;;;;10405697;28;20057;-93
2023/08/26 12:45:31;;;;;;;10.82;7.90;;;;;;;;;;10390684;28;20052;-93
2023/08/26 12:57:10;;;;;;;14.68;10.05;;;;;;;;;;10320451;28;20607;-93
2023/08/26 13:02:12;;;;;;;7.35;5.40;;;;;;;;;;10327080;28;20033;-90
2023/08/26 13:07:14;;;;;;;10.90;6.68;;;;;;;;;;10335585;28;20033;-88
2023/08/26 13:12:16;;;;;;;9.93;7.95;;;;;;;;;;10341814;28;20041;-93
2023/08/26 13:17:17;;;;;;;11.38;7.65;;;;;;;;;;10337966;28;20041;-91
2023/08/26 13:22:18;;;;;;;11.82;7.18;;;;;;;;;;10340921;28;20054;-92
2023/08/26 13:27:19;;;;;;;14.10;7.50;;;;;;;;;;10331953;28;20030;-91
2023/08/26 13:32:23;;;;;;;12.48;6.88;;;;;;;;;;10326934;28;20402;-91
2023/08/26 13:37:24;;;;;;;10.82;6.05;;;;;;;;;;10330947;28;20022;-91
2023/08/26 13:42:26;;;;;;;9.55;6.70;;;;;;;;;;10337456;28;20022;-90
2023/08/26 13:47:27;;;;;;;8.20;5.95;;;;;;;;;;10342695;28;20060;-91
2023/08/26 13:52:28;;;;;;;9.40;5.90;;;;;;;;;;10395737;28;20033;-92
2023/08/26 13:57:33;;;;;;;12.75;6.15;;;;;;;;;;10385936;28;20488;-92
2023/08/26 14:02:34;;;;;;;7.75;6.18;;;;;;;;;;10379523;28;20025;-91
2023/08/26 14:08:07;;;;;;;9.07;6.05;;;;;;;;;;10378081;28;20078;-96
2023/08/26 14:13:32;;;;;;;;;;;;;;;;;;;;;
2023/08/26 14:18:34;;;;;;;8.80;5.57;;;;;;;;;;10405310;28;20154;-92
2023/08/26 14:23:35;;;;;;;10.13;6.28;;;;;;;;;;10414214;28;20040;-90
2023/08/26 14:28:39;;;;;;;8.13;5.93;;;;;;;;;;10417486;28;20037;-92
2023/08/26 14:51:09;;;;;;;9.50;6.40;;;;;;;;;;10435735;28;20057;-94
2023/08/26 15:43:12;;;;;;;7.38;5.55;;;;;;;;;;10371702;28;20474;-95
2023/08/26 15:48:13;;;;;;;6.75;5.13;;;;;;;;;;10347573;28;20104;-93
2023/08/26 15:58:56;;;;;;;11.02;5.50;;;;;;;;;;10357606;28;20084;-91
2023/08/26 16:03:57;;;;;;;7.15;5.15;;;;;;;;;;10336311;28;20118;-90
2023/08/26 16:08:59;;;;;;;8.32;5.70;;;;;;;;;;10365034;28;20404;-93
2023/08/26 16:14:00;;;;;;;8.35;5.85;;;;;;;;;;10337380;28;20137;-90
2023/08/26 16:19:01;;;;;;;7.15;5.55;;;;;;;;;;10307330;28;20118;-92
2023/08/26 16:24:03;;;;;;;9.23;6.05;;;;;;;;;;10330194;28;20084;-91
2023/08/26 16:29:04;;;;;;;12.05;6.55;;;;;;;;;;10329027;28;20038;-92
2023/08/26 16:34:25;;;;;;;9.52;5.57;;;;;;;;;;10339382;28;20133;-94
2023/08/26 16:51:22;;;;;;;11.07;6.63;;;;;;;;;;10363545;28;20042;-93
2023/08/26 17:23:56;;;;;;;9.88;7.53;;;;;;;;;;11180024;23;20051;-89
2023/08/26 17:28:57;;;;;;;7.88;6.78;;;;;;;;;;10242997;28;20038;-88
2023/08/26 17:33:58;;;;;;;13.07;7.88;;;;;;;;;;10255630;28;20494;-88
2023/08/26 17:39:18;;;;;;;11.52;7.72;;;;;;;;;;10250372;28;20030;-86
2023/08/26 17:44:30;;;;;;;16.58;11.57;;;;;;;;;;10251540;28;20031;-89
2023/08/26 17:49:31;;;;;;;13.38;9.80;;;;;;;;;;10251725;28;20041;-88
2023/08/26 17:54:32;;;;;;;14.32;9.32;;;;;;;;;;10252695;28;20042;-89
2023/08/26 17:59:36;;;;;;;16.02;10.77;;;;;;;;;;10253590;28;20058;-89
2023/08/26 18:04:37;;;;;;;13.93;10.48;;;;;;;;;;10259778;28;20027;-89
2023/08/26 18:09:39;;;;;;;16.02;9.60;;;;;;;;;;10229198;28;20041;-89
2023/08/26 18:20:33;;;;;;;15.23;10.00;;;;;;;;;;10219285;28;20031;-90
2023/08/26 18:25:35;;;;;;;16.27;10.80;;;;;;;;;;10227276;28;20056;-87
2023/08/26 18:30:36;;;;;;;18.00;12.23;;;;;;;;;;10223867;28;20040;-88
2023/08/26 18:36:00;;;;;;;19.17;11.20;;;;;;;;;;10219098;28;20039;-88
2023/08/26 18:41:31;;;;;;;14.93;10.68;;;;;;;;;;10213428;28;20071;-91
2023/08/26 18:46:32;;;;;;;14.55;10.35;;;;;;;;;;10225324;28;20031;-88
2023/08/26 18:51:33;;;;;;;16.65;11.10;;;;;;;;;;10221716;28;20086;-88
2023/08/26 18:56:35;;;;;;;18.17;13.05;;;;;;;;;;10217141;28;20043;-87
2023/08/26 19:01:44;;;;;;;23.17;16.98;;;;;;;;;;10216169;28;20364;-87
2023/08/26 19:12:55;;;;;;;28.20;20.33;;;;;;;;;;10215640;28;20052;-89
2023/08/26 19:23:33;;;;;;;22.63;16.23;;;;;;;;;;10213806;28;20511;-86
2023/08/26 19:28:34;;;;;;;21.48;14.85;;;;;;;;;;10219210;28;20426;-88
2023/08/26 19:39:18;;;;;;;28.13;17.27;;;;;;;;;;10220358;28;20034;-90
2023/08/26 19:44:19;;;;;;;37.60;26.05;;;;;;;;;;10212063;28;20139;-91
2023/08/26 19:49:20;;;;;;;31.73;22.80;;;;;;;;;;10216322;28;20027;-91
2023/08/26 19:54:21;;;;;;;26.02;17.98;;;;;;;;;;10229540;28;20066;-90
2023/08/26 19:59:22;;;;;;;34.50;23.13;;;;;;;;;;10215337;28;20034;-91
2023/08/26 20:04:24;;;;;;;32.72;22.70;;;;;;;;;;10220061;28;20039;-93
2023/08/26 20:09:37;;;;;;;33.83;22.70;;;;;;;;;;10222487;28;20118;-93
2023/08/26 20:14:39;;;;;;;36.40;23.48;;;;;;;;;;10218301;29;20043;-94
2023/08/26 20:19:40;;;;;;;30.50;21.95;;;;;;;;;;10215740;29;20028;-92
2023/08/26 20:24:41;;;;;;;29.52;16.73;;;;;;;;;;10211395;29;20155;-93
2023/08/26 20:29:42;;;;;;;30.20;20.55;;;;;;;;;;10210992;28;20503;-93
2023/08/26 20:34:43;;;;;;;35.03;22.20;;;;;;;;;;10213704;28;20395;-92
2023/08/26 20:39:44;;;;;;;36.70;22.85;;;;;;;;;;10224240;29;20038;-92
2023/08/26 20:44:46;;;;;;;31.35;21.40;;;;;;;;;;10218610;29;20031;-93
2023/08/26 20:49:54;;;;;;;35.08;22.58;;;;;;;;;;10217684;29;20043;-93
2023/08/26 20:54:55;;;;;;;35.35;22.52;;;;;;;;;;10222033;28;20050;-92
2023/08/26 21:00:06;;;;;;;30.58;21.98;;;;;;;;;;10220534;29;20039;-92
2023/08/26 21:05:07;;;;;;;31.42;22.38;;;;;;;;;;10224734;28;20039;-93
2023/08/26 21:10:08;;;;;;;27.65;19.73;;;;;;;;;;10214211;29;20039;-92
2023/08/26 21:15:10;;;;;;;28.30;19.50;;;;;;;;;;10217108;29;20090;-94
2023/08/26 21:20:11;;;;;;;23.92;17.80;;;;;;;;;;10211069;29;20039;-92
2023/08/26 21:25:12;;;;;;;24.95;17.27;;;;;;;;;;10219058;28;20555;-93
2023/08/26 21:30:13;;;;;;;26.33;17.23;;;;;;;;;;10220648;28;20361;-93
2023/08/26 21:35:15;;;;;;;31.92;20.20;;;;;;;;;;10219133;28;20480;-94
2023/08/26 21:40:16;;;;;;;26.85;18.45;;;;;;;;;;10224421;28;20032;-93
2023/08/26 21:45:18;;;;;;;25.08;17.05;;;;;;;;;;10207862;29;20035;-93
2023/08/26 21:50:19;;;;;;;23.75;17.48;;;;;;;;;;10216752;29;20028;-92
2023/08/26 21:55:24;;;;;;;24.98;18.55;;;;;;;;;;10220571;28;20039;-93
2023/08/26 22:00:25;;;;;;;;;;;;;;;;;;10209370;29;20481;-92
2023/08/26 22:05:29;;;;;;;23.73;16.33;;;;;;;;;;10222615;28;19914;-92
2023/08/26 22:10:34;;;;;;;34.55;20.08;;;;;;;;;;10213781;28;20039;-91
2023/08/26 22:15:38;;;;;;;;;;;;;;;;;;10231487;28;20039;-91
2023/08/26 22:20:39;;;;;;;42.78;24.50;;;;;;;;;;10210580;28;19918;-91
2023/08/26 22:25:40;;;;;;;36.10;21.15;;;;;;;;;;10203161;23;20409;-89
2023/08/26 22:30:42;;;;;;;32.92;18.83;;;;;;;;;;10143397;29;20479;-90
2023/08/26 22:35:43;;;;;;;29.95;18.77;;;;;;;;;;10143550;29;20481;-92
2023/08/26 22:40:46;;;;;;;40.17;20.73;;;;;;;;;;10144512;29;20036;-89
2023/08/26 22:45:47;;;;;;;30.30;17.85;;;;;;;;;;10163721;29;20110;-89
2023/08/26 22:50:48;;;;;;;27.75;16.67;;;;;;;;;;10148708;29;20099;-92
2023/08/26 22:55:49;;;;;;;22.52;14.70;;;;;;;;;;10131076;29;20079;-90
2023/08/26 23:00:50;;;;;;;31.63;17.55;;;;;;;;;;10148779;29;20059;-89
2023/08/26 23:06:00;;;;;;;25.13;14.07;;;;;;;;;;10141903;29;20044;-85
2023/08/26 23:11:01;;;;;;;25.00;14.00;;;;;;;;;;10160579;23;20154;-89
2023/08/26 23:16:02;;;;;;;23.25;14.63;;;;;;;;;;10202474;29;20039;-88
2023/08/26 23:21:03;;;;;;;24.50;15.52;;;;;;;;;;10202516;29;20046;-88
2023/08/26 23:26:04;;;;;;;25.75;14.15;;;;;;;;;;10202504;29;20118;-91
2023/08/26 23:31:05;;;;;;;22.85;13.98;;;;;;;;;;10198615;29;20075;-88
2023/08/26 23:36:07;;;;;;;28.38;16.10;;;;;;;;;;10198379;29;20031;-88
2023/08/26 23:41:08;;;;;;;38.13;20.27;;;;;;;;;;10202237;29;20860;-89
2023/08/26 23:46:09;;;;;;;55.78;23.92;;;;;;;;;;10201379;29;20039;-88
2023/08/26 23:51:10;;;;;;;34.88;18.88;;;;;;;;;;10200874;29;20369;-90
2023/08/26 23:56:11;;;;;;;38.63;20.70;;;;;;;;;;10199417;29;20031;-91
